Time;durP1;ratioP1;P1;durP2;ratioP2;P2;SDS_P1;SDS_P2;PMS_P1;PMS_P2;Temp;Humidity;BMP_temperature;BMP_pressure;BME280_temperature;BME280_humidity;BME280_pressure;Samples;Min_cycle;Max_cycle;Signal;HPM_P1;HPM_P2
2021/12/20 00:04:51;;;;;;;16.40;6.47;;;4.00;97.00;;;;;;10124799;28;20035;-70
2021/12/20 00:09:42;;;;;;;13.82;5.30;;;4.00;97.10;;;;;;10129698;28;20513;-70
2021/12/20 00:14:32;;;;;;;15.93;5.88;;;4.00;97.00;;;;;;10116787;28;20043;-70
2021/12/20 00:19:25;;;;;;;15.57;5.95;;;4.00;97.10;;;;;;10127966;28;20025;-71
2021/12/20 00:24:17;;;;;;;12.50;5.93;;;3.80;97.30;;;;;;10125264;28;20147;-70
2021/12/20 00:29:07;;;;;;;13.70;6.10;;;3.90;97.20;;;;;;10129482;28;20060;-70
2021/12/20 00:33:58;;;;;;;17.02;5.95;;;4.00;97.00;;;;;;10121021;28;20020;-69
2021/12/20 00:44:18;;;;;;;16.30;6.82;;;4.00;97.20;;;;;;10079649;28;20145;-72
2021/12/20 00:49:09;;;;;;;15.55;6.55;;;4.00;97.10;;;;;;10104429;28;20123;-71
2021/12/20 00:54:00;;;;;;;18.55;7.13;;;4.20;97.10;;;;;;10116179;28;20104;-71
2021/12/20 00:58:50;;;;;;;17.95;6.03;;;4.20;96.90;;;;;;10111453;28;20071;-70
2021/12/20 01:03:41;;;;;;;15.55;7.15;;;4.20;97.10;;;;;;10114038;28;20032;-71
2021/12/20 01:08:36;;;;;;;16.60;7.40;;;4.10;97.00;;;;;;10124584;28;20107;-70
2021/12/20 01:13:29;;;;;;;17.58;6.70;;;4.10;97.10;;;;;;10119358;28;20053;-72
2021/12/20 01:18:21;;;;;;;14.75;4.88;;;4.20;97.10;;;;;;10112029;28;20036;-71
2021/12/20 01:23:14;;;;;;;19.83;6.55;;;4.10;97.10;;;;;;10121365;28;20056;-69
2021/12/20 01:28:06;;;;;;;17.75;6.32;;;4.20;97.10;;;;;;10137481;28;20036;-70
2021/12/20 01:32:57;;;;;;;16.65;7.10;;;4.20;97.10;;;;;;10113619;28;20029;-69
2021/12/20 01:37:49;;;;;;;17.98;6.07;;;4.20;97.20;;;;;;10128350;28;20071;-70
2021/12/20 01:42:40;;;;;;;17.25;6.85;;;4.10;97.20;;;;;;10118223;28;20136;-70
2021/12/20 01:47:36;;;;;;;12.80;5.47;;;4.10;97.20;;;;;;10117284;28;20495;-70
2021/12/20 01:52:29;;;;;;;16.17;4.95;;;4.10;97.30;;;;;;10113018;28;20108;-70
2021/12/20 01:57:21;;;;;;;16.58;5.63;;;4.20;97.40;;;;;;10124250;28;20051;-70
2021/12/20 02:02:12;;;;;;;16.90;5.30;;;4.10;97.20;;;;;;10119062;28;20036;-69
2021/12/20 02:07:03;;;;;;;15.32;5.43;;;4.00;97.40;;;;;;10122462;28;20040;-70
2021/12/20 02:11:54;;;;;;;15.45;5.85;;;4.00;97.30;;;;;;10111842;28;20052;-70
2021/12/20 02:16:46;;;;;;;13.20;5.75;;;4.00;97.40;;;;;;10118055;28;20044;-70
2021/12/20 02:21:37;;;;;;;17.83;6.25;;;3.90;97.30;;;;;;10117021;28;20429;-70
2021/12/20 02:26:28;;;;;;;21.95;7.65;;;4.00;97.40;;;;;;10138253;28;20148;-70
2021/12/20 02:41:28;;;;;;;13.05;4.80;;;3.90;97.30;;;;;;10125422;28;20486;-69
2021/12/20 02:51:26;;;;;;;15.95;5.78;;;3.90;97.20;;;;;;10124175;28;20063;-70
2021/12/20 02:56:17;;;;;;;12.00;6.60;;;4.00;97.10;;;;;;10139208;28;20048;-69
2021/12/20 03:01:08;;;;;;;19.73;7.28;;;3.90;97.00;;;;;;10120211;28;20104;-69
2021/12/20 03:05:59;;;;;;;10.23;5.85;;;3.90;97.00;;;;;;10109766;28;20029;-69
2021/12/20 03:10:50;;;;;;;10.57;4.82;;;4.00;97.30;;;;;;10108896;28;20032;-69
2021/12/20 03:15:41;;;;;;;17.38;7.47;;;3.80;97.00;;;;;;10115122;28;20028;-68
2021/12/20 03:20:32;;;;;;;14.65;5.03;;;3.70;97.20;;;;;;10111987;28;20024;-69
2021/12/20 03:25:23;;;;;;;12.65;4.93;;;3.80;97.20;;;;;;10120959;28;20044;-70
2021/12/20 03:30:15;;;;;;;12.50;6.07;;;3.80;97.20;;;;;;10110113;28;20033;-70
2021/12/20 03:35:07;;;;;;;14.77;5.10;;;3.90;97.20;;;;;;10118278;28;20388;-69
2021/12/20 03:39:58;;;;;;;13.85;5.63;;;3.90;97.10;;;;;;10108868;28;20021;-70
2021/12/20 03:44:49;;;;;;;13.00;5.07;;;4.10;97.10;;;;;;10117783;28;20033;-70
2021/12/20 03:49:41;;;;;;;18.50;5.03;;;3.90;97.20;;;;;;10111724;28;20533;-71
2021/12/20 03:54:31;;;;;;;13.50;4.82;;;4.00;97.10;;;;;;10108202;28;20119;-70
2021/12/20 03:59:22;;;;;;;15.68;5.50;;;4.10;97.00;;;;;;10112089;28;20124;-69
2021/12/20 04:04:13;;;;;;;12.48;5.50;;;4.10;97.00;;;;;;10120081;28;20410;-69
2021/12/20 04:09:04;;;;;;;13.77;4.80;;;4.00;97.10;;;;;;10116718;28;21285;-69
2021/12/20 04:13:56;;;;;;;16.77;6.97;;;4.00;97.10;;;;;;10107760;28;20090;-71
2021/12/20 04:18:47;;;;;;;13.27;5.72;;;4.10;97.00;;;;;;10114672;28;20156;-69
2021/12/20 04:23:37;;;;;;;12.65;4.85;;;4.00;97.00;;;;;;10130177;28;20569;-69
2021/12/20 04:28:28;;;;;;;11.40;5.13;;;4.00;97.10;;;;;;10108300;28;20024;-69
2021/12/20 04:33:19;;;;;;;13.35;5.25;;;4.00;97.00;;;;;;10115211;28;20020;-69
2021/12/20 04:38:10;;;;;;;15.98;5.70;;;4.10;97.00;;;;;;10115628;28;20240;-69
2021/12/20 04:43:01;;;;;;;10.60;5.25;;;4.00;97.00;;;;;;10119293;28;20046;-70
2021/12/20 04:47:52;;;;;;;16.35;5.90;;;4.10;97.00;;;;;;10124502;28;20498;-70
2021/12/20 04:52:43;;;;;;;13.90;5.57;;;4.00;97.10;;;;;;10131788;28;20107;-70
2021/12/20 04:57:34;;;;;;;12.27;5.00;;;4.10;97.10;;;;;;10125269;28;20178;-70
2021/12/20 05:02:25;;;;;;;16.75;5.45;;;4.10;96.90;;;;;;10133726;28;20100;-70
2021/12/20 05:07:16;;;;;;;11.20;5.38;;;4.10;97.00;;;;;;10124307;28;20349;-70
2021/12/20 05:12:13;;;;;;;17.38;5.18;;;4.10;97.00;;;;;;10124715;28;20326;-70
2021/12/20 05:17:03;;;;;;;9.02;5.13;;;4.10;97.00;;;;;;10121893;28;20032;-70
2021/12/20 05:21:56;;;;;;;14.55;6.28;;;4.10;97.00;;;;;;10123238;28;20027;-70
2021/12/20 05:26:46;;;;;;;11.75;4.10;;;4.10;97.00;;;;;;10119721;28;20460;-70
2021/12/20 05:31:38;;;;;;;16.48;5.68;;;4.00;97.10;;;;;;10130947;28;20029;-68
2021/12/20 05:36:29;;;;;;;12.65;4.93;;;4.00;97.10;;;;;;10112930;28;20537;-69
2021/12/20 05:41:19;;;;;;;13.85;5.75;;;4.10;97.00;;;;;;10124380;28;20027;-70
2021/12/20 05:46:10;;;;;;;12.48;4.97;;;4.00;97.00;;;;;;10114124;28;20052;-70
2021/12/20 05:51:01;;;;;;;13.25;5.72;;;4.10;96.90;;;;;;10132738;28;20194;-70
2021/12/20 05:55:51;;;;;;;14.18;5.45;;;4.00;97.10;;;;;;10114947;28;20044;-70
2021/12/20 06:00:42;;;;;;;16.15;5.95;;;4.10;96.90;;;;;;10122744;28;20498;-70
2021/12/20 06:05:33;;;;;;;14.05;6.10;;;4.10;97.00;;;;;;10119586;28;20416;-69
2021/12/20 06:10:24;;;;;;;12.93;5.47;;;4.00;97.20;;;;;;10110508;28;20507;-69
2021/12/20 06:15:15;;;;;;;16.42;5.43;;;4.10;97.10;;;;;;10116907;28;20521;-69
2021/12/20 06:20:08;;;;;;;17.60;6.35;;;4.20;97.10;;;;;;10125945;28;20028;-69
2021/12/20 06:24:59;;;;;;;13.60;5.28;;;4.20;97.00;;;;;;10125517;28;20438;-70
2021/12/20 06:29:50;;;;;;;15.95;5.97;;;4.20;97.00;;;;;;10128854;28;20107;-70
2021/12/20 06:34:41;;;;;;;17.35;6.47;;;4.20;97.00;;;;;;10117153;28;20120;-70
2021/12/20 06:39:32;;;;;;;15.85;7.63;;;4.10;97.00;;;;;;10115187;28;20044;-69
2021/12/20 06:44:23;;;;;;;16.40;6.28;;;4.10;97.00;;;;;;10113224;28;20029;-69
2021/12/20 06:49:14;;;;;;;15.98;7.00;;;4.10;97.10;;;;;;10123383;28;20115;-69
2021/12/20 06:54:04;;;;;;;17.05;5.82;;;4.10;97.20;;;;;;10108255;28;20029;-69
2021/12/20 06:58:57;;;;;;;15.25;5.63;;;4.00;97.00;;;;;;10113122;28;20036;-69
2021/12/20 07:03:48;;;;;;;13.15;5.78;;;4.10;97.40;;;;;;10115502;28;20086;-69
2021/12/20 07:08:39;;;;;;;12.10;6.93;;;4.00;97.20;;;;;;10111160;28;20031;-69
2021/12/20 07:13:29;;;;;;;13.68;5.88;;;4.00;97.20;;;;;;10116705;28;20028;-69
2021/12/20 07:18:20;;;;;;;12.90;6.25;;;4.10;97.10;;;;;;10118567;28;20071;-70
2021/12/20 07:23:11;;;;;;;17.60;6.00;;;4.10;97.10;;;;;;10126738;28;20123;-70
2021/12/20 07:28:01;;;;;;;14.45;6.63;;;4.10;97.00;;;;;;10101591;28;20140;-71
2021/12/20 07:32:52;;;;;;;17.58;6.55;;;4.10;97.10;;;;;;10104768;28;20044;-66
2021/12/20 07:37:43;;;;;;;16.08;6.95;;;4.10;97.10;;;;;;10121044;28;20045;-68
2021/12/20 07:42:34;;;;;;;13.68;5.40;;;4.30;97.10;;;;;;10117889;28;20021;-76
2021/12/20 07:47:25;;;;;;;15.70;6.25;;;4.20;97.20;;;;;;10119933;28;20029;-68
2021/12/20 07:52:16;;;;;;;16.08;5.57;;;4.30;97.10;;;;;;10124870;28;20325;-70
2021/12/20 07:57:06;;;;;;;10.63;5.05;;;4.30;97.10;;;;;;10121874;28;20024;-68
2021/12/20 08:01:57;;;;;;;13.68;5.50;;;4.30;97.20;;;;;;10119199;28;20103;-69
2021/12/20 08:06:49;;;;;;;17.70;5.97;;;4.30;97.20;;;;;;10125206;28;20611;-72
2021/12/20 08:11:40;;;;;;;13.68;5.97;;;4.30;97.20;;;;;;10131221;28;20025;-70
2021/12/20 08:16:30;;;;;;;14.77;7.43;;;4.30;97.10;;;;;;10131073;28;20056;-68
2021/12/20 08:21:21;;;;;;;13.23;6.15;;;4.30;97.30;;;;;;10130962;28;20482;-70
2021/12/20 08:26:12;;;;;;;13.60;5.97;;;4.30;97.00;;;;;;10129257;28;20060;-69
2021/12/20 08:31:07;;;;;;;12.05;5.22;;;4.20;97.20;;;;;;10113943;28;20021;-70
2021/12/20 08:36:04;;;;;;;10.93;5.07;;;4.20;97.20;;;;;;10125539;28;20702;-71
2021/12/20 08:40:55;;;;;;;13.88;5.03;;;4.30;97.20;;;;;;10118939;28;20033;-68
2021/12/20 08:45:45;;;;;;;13.10;5.20;;;4.30;97.10;;;;;;10125122;28;20112;-75
2021/12/20 08:50:36;;;;;;;13.88;5.63;;;4.30;97.20;;;;;;10119149;28;20498;-73
2021/12/20 08:55:28;;;;;;;12.02;5.38;;;4.50;97.10;;;;;;10127956;28;20029;-70
2021/12/20 09:00:25;;;;;;;13.43;6.07;;;4.50;97.00;;;;;;10122509;28;20028;-73
2021/12/20 09:05:17;;;;;;;11.93;5.32;;;4.60;97.00;;;;;;10127537;28;20024;-79
2021/12/20 09:10:10;;;;;;;15.65;6.10;;;4.60;97.00;;;;;;10126466;28;20115;-73
2021/12/20 09:15:01;;;;;;;14.82;5.70;;;4.70;97.00;;;;;;10132424;28;20319;-73
2021/12/20 09:19:53;;;;;;;9.60;4.25;;;4.70;96.90;;;;;;10125563;28;20032;-71
2021/12/20 09:24:44;;;;;;;12.73;5.82;;;4.70;97.00;;;;;;10125713;28;20045;-69
2021/12/20 09:29:35;;;;;;;11.60;4.88;;;4.70;97.10;;;;;;10127714;28;20024;-76
2021/12/20 09:34:26;;;;;;;9.27;4.53;;;4.80;97.00;;;;;;10130152;28;20092;-64
2021/12/20 09:39:18;;;;;;;13.07;4.75;;;4.80;97.00;;;;;;10122553;28;20167;-72
2021/12/20 09:44:10;;;;;;;12.57;4.57;;;4.70;97.00;;;;;;10126302;28;20029;-70
2021/12/20 09:49:02;;;;;;;12.07;5.43;;;4.80;97.00;;;;;;10126858;28;20562;-72
2021/12/20 09:53:55;;;;;;;11.57;5.25;;;4.80;97.00;;;;;;10121619;28;20036;-64
2021/12/20 09:58:47;;;;;;;17.90;6.05;;;4.70;96.90;;;;;;10121791;28;20525;-65
2021/12/20 10:03:39;;;;;;;15.23;6.25;;;4.70;96.80;;;;;;10125019;28;20119;-65
2021/12/20 10:08:35;;;;;;;13.80;4.88;;;4.80;97.00;;;;;;10115454;28;20082;-77
2021/12/20 10:13:32;;;;;;;15.70;6.07;;;5.00;96.80;;;;;;10121424;28;20252;-68
2021/12/20 10:18:24;;;;;;;12.30;6.30;;;5.00;96.70;;;;;;10120179;28;20298;-68
2021/12/20 10:23:20;;;;;;;16.63;6.22;;;5.00;96.80;;;;;;10122201;28;20040;-68
2021/12/20 10:28:12;;;;;;;;;;;5.00;96.80;;;;;;10119730;28;20028;-67
2021/12/20 10:33:04;;;;;;;12.82;5.78;;;5.10;96.60;;;;;;10126685;28;19908;-70
2021/12/20 10:38:00;;;;;;;14.50;6.88;;;5.10;96.70;;;;;;10119512;28;20078;-68
2021/12/20 10:42:53;;;;;;;14.18;6.20;;;5.20;96.60;;;;;;10119870;28;20503;-66
2021/12/20 10:47:45;;;;;;;18.15;7.47;;;5.30;96.60;;;;;;10119774;28;20412;-69
2021/12/20 10:52:36;;;;;;;13.23;7.43;;;5.50;96.60;;;;;;10121096;28;20055;-67
2021/12/20 10:57:28;;;;;;;20.35;10.32;;;5.50;96.50;;;;;;10110562;28;20570;-69
2021/12/20 11:13:16;;;;;;;15.35;7.38;;;5.70;96.50;;;;;;10058536;28;20032;-69
2021/12/20 11:18:16;;;;;;;17.77;8.43;;;5.90;96.40;;;;;;10104412;28;20145;-69
2021/12/20 11:23:11;;;;;;;20.60;8.60;;;5.90;96.30;;;;;;10124169;28;20135;-71
2021/12/20 11:28:03;;;;;;;21.30;8.30;;;5.90;96.20;;;;;;10121136;28;20119;-70
2021/12/20 11:32:53;;;;;;;23.05;9.27;;;5.90;96.20;;;;;;10124596;28;20115;-66
2021/12/20 11:37:44;;;;;;;18.33;8.80;;;6.10;95.90;;;;;;10120863;28;20519;-67
2021/12/20 11:42:35;;;;;;;24.08;8.73;;;6.10;96.10;;;;;;10123142;28;20593;-66
2021/12/20 11:48:00;;;;;;;14.52;8.55;;;6.20;96.20;;;;;;10137436;28;20020;-66
2021/12/20 11:52:53;;;;;;;18.48;9.77;;;6.20;96.20;;;;;;10134851;28;20028;-66
2021/12/20 11:57:54;;;;;;;14.85;7.30;;;6.20;96.20;;;;;;10132873;28;20036;-65
2021/12/20 12:02:47;;;;;;;14.63;7.80;;;6.30;96.20;;;;;;10137077;28;20023;-68
2021/12/20 12:07:39;;;;;;;15.60;8.52;;;6.10;96.50;;;;;;10134710;28;20314;-69
2021/12/20 12:12:31;;;;;;;18.75;8.95;;;5.90;96.20;;;;;;10127418;28;20511;-69
2021/12/20 12:17:21;;;;;;;21.13;8.82;;;5.80;96.20;;;;;;10131675;28;20047;-69
2021/12/20 12:22:33;;;;;;;20.58;8.63;;;5.90;96.10;;;;;;10136722;28;20028;-68
2021/12/20 12:27:33;;;;;;;21.00;9.50;;;6.00;96.20;;;;;;10123554;28;20024;-68
2021/12/20 12:32:23;;;;;;;17.95;8.05;;;6.10;95.90;;;;;;10151471;28;20037;-68
2021/12/20 12:37:17;;;;;;;19.15;8.90;;;6.10;95.90;;;;;;10123427;28;20060;-67
2021/12/20 12:42:08;;;;;;;17.42;8.50;;;5.90;96.00;;;;;;10133806;28;20020;-72
2021/12/20 12:47:13;;;;;;;19.85;7.95;;;5.80;95.90;;;;;;10129872;28;20037;-74
2021/12/20 12:52:29;;;;;;;20.33;10.33;;;5.70;96.10;;;;;;10137860;28;20025;-67
2021/12/20 12:57:19;;;;;;;14.95;7.38;;;5.80;96.10;;;;;;10128672;28;20456;-68
2021/12/20 13:02:19;;;;;;;19.00;7.05;;;5.80;96.10;;;;;;10116782;28;20051;-68
2021/12/20 13:07:11;;;;;;;18.23;7.22;;;5.70;96.10;;;;;;10135802;28;20023;-68
2021/12/20 13:12:16;;;;;;;18.98;8.80;;;5.60;96.20;;;;;;10125069;28;20057;-67
2021/12/20 13:17:06;;;;;;;20.13;8.77;;;5.70;96.10;;;;;;10129338;28;20130;-68
2021/12/20 13:22:04;;;;;;;17.92;8.70;;;5.70;96.20;;;;;;10125076;28;20586;-72
2021/12/20 13:27:08;;;;;;;19.50;8.27;;;5.80;96.00;;;;;;10120735;28;20052;-67
2021/12/20 13:32:10;;;;;;;18.55;8.45;;;5.90;96.00;;;;;;10124825;28;20040;-73
2021/12/20 13:37:06;;;;;;;19.85;9.77;;;5.90;96.00;;;;;;10123477;28;20036;-74
2021/12/20 13:42:09;;;;;;;18.45;7.90;;;6.00;95.90;;;;;;10125519;28;20511;-71
2021/12/20 13:47:03;;;;;;;19.17;8.25;;;6.00;95.90;;;;;;10123792;28;20044;-69
2021/12/20 13:52:22;;;;;;;21.27;9.05;;;6.10;95.80;;;;;;10129398;28;20033;-70
2021/12/20 13:57:19;;;;;;;15.73;7.60;;;6.00;95.90;;;;;;10123042;28;20060;-72
2021/12/20 14:02:13;;;;;;;15.48;7.20;;;6.10;95.80;;;;;;10120372;28;20020;-72
2021/12/20 14:07:23;;;;;;;15.10;7.53;;;6.10;95.80;;;;;;10122111;28;20049;-70
2021/12/20 14:12:19;;;;;;;17.50;8.80;;;6.10;95.90;;;;;;10121009;28;20029;-75
2021/12/20 14:17:09;;;;;;;17.95;9.02;;;6.10;95.80;;;;;;10122393;28;20029;-70
2021/12/20 14:22:00;;;;;;;14.30;7.78;;;6.10;95.90;;;;;;10123580;28;20025;-69
2021/12/20 14:27:01;;;;;;;18.17;7.28;;;6.20;95.90;;;;;;10121955;28;20029;-71
2021/12/20 14:31:59;;;;;;;14.98;6.97;;;6.20;95.80;;;;;;10120049;28;20020;-70
2021/12/20 14:36:50;;;;;;;18.92;7.85;;;6.00;95.90;;;;;;10124058;28;20033;-72
2021/12/20 14:41:44;;;;;;;11.40;6.65;;;6.10;95.80;;;;;;10118094;28;20021;-71
2021/12/20 14:52:17;;;;;;;15.98;7.32;;;6.00;95.90;;;;;;10125732;28;20040;-72
2021/12/20 14:57:13;;;;;;;12.90;7.45;;;6.00;95.90;;;;;;10119757;28;20195;-73
2021/12/20 15:02:06;;;;;;;12.90;7.13;;;6.00;95.80;;;;;;10120187;28;20024;-77
2021/12/20 15:06:59;;;;;;;15.18;6.40;;;5.90;96.00;;;;;;10125413;28;20025;-73
2021/12/20 15:11:50;;;;;;;12.50;6.57;;;5.80;96.10;;;;;;10118766;28;20013;-74
2021/12/20 15:16:41;;;;;;;16.15;7.38;;;5.80;96.00;;;;;;10125071;28;20201;-75
2021/12/20 15:21:33;;;;;;;20.30;6.75;;;5.80;95.90;;;;;;10116144;28;20202;-70
2021/12/20 15:26:24;;;;;;;14.75;6.00;;;5.80;96.00;;;;;;10106543;28;20423;-69
2021/12/20 15:31:15;;;;;;;15.30;6.40;;;5.70;96.00;;;;;;10121602;28;20034;-70
2021/12/20 15:36:06;;;;;;;17.30;5.90;;;5.70;96.10;;;;;;10112550;28;20249;-70
2021/12/20 15:40:56;;;;;;;14.00;6.82;;;5.60;96.20;;;;;;10127916;28;20033;-72
2021/12/20 15:45:47;;;;;;;17.65;7.65;;;5.60;96.10;;;;;;10113808;28;20025;-68
2021/12/20 15:50:41;;;;;;;15.30;6.25;;;5.70;96.10;;;;;;10122380;28;20436;-68
2021/12/20 15:55:33;;;;;;;20.15;7.35;;;5.60;96.10;;;;;;10113903;28;20052;-69
2021/12/20 16:00:24;;;;;;;15.18;6.40;;;5.60;96.10;;;;;;10114674;28;20083;-70
2021/12/20 16:05:14;;;;;;;15.90;6.47;;;5.60;96.10;;;;;;10122206;28;20032;-71
2021/12/20 16:10:06;;;;;;;14.00;6.75;;;5.50;96.20;;;;;;10109464;28;20039;-70
2021/12/20 16:14:56;;;;;;;17.73;6.80;;;5.50;96.20;;;;;;10119146;28;20033;-68
2021/12/20 16:19:47;;;;;;;10.77;5.85;;;5.60;96.10;;;;;;10118304;28;20037;-68
2021/12/20 16:24:38;;;;;;;16.15;5.93;;;5.60;96.10;;;;;;10121106;28;20446;-69
2021/12/20 16:29:28;;;;;;;13.93;5.57;;;5.50;96.10;;;;;;10121409;28;20518;-69
2021/12/20 16:34:20;;;;;;;12.07;5.00;;;5.60;96.10;;;;;;10126178;28;20119;-70
2021/12/20 16:39:11;;;;;;;13.30;5.70;;;5.50;96.10;;;;;;10118503;28;20051;-70
2021/12/20 16:44:04;;;;;;;11.52;5.47;;;5.50;96.00;;;;;;10126542;28;20147;-68
2021/12/20 16:48:58;;;;;;;20.15;6.30;;;5.50;96.00;;;;;;10126447;28;20029;-68
2021/12/20 16:53:49;;;;;;;12.57;5.70;;;5.40;96.00;;;;;;10123836;28;20115;-68
2021/12/20 16:58:40;;;;;;;10.73;5.40;;;5.30;96.10;;;;;;10127654;28;20040;-71
2021/12/20 17:03:45;;;;;;;14.95;5.97;;;5.20;96.00;;;;;;10124431;28;20033;-69
2021/12/20 17:08:41;;;;;;;12.30;5.43;;;5.10;95.90;;;;;;10124566;28;20028;-71
2021/12/20 17:13:33;;;;;;;10.02;4.90;;;5.00;96.00;;;;;;10131407;28;20029;-74
2021/12/20 17:18:25;;;;;;;12.13;4.75;;;4.80;95.90;;;;;;10128245;28;20028;-71
2021/12/20 17:23:16;;;;;;;7.03;5.00;;;4.80;95.90;;;;;;10126043;28;20118;-69
2021/12/20 17:28:07;;;;;;;13.02;5.53;;;4.70;96.00;;;;;;10128416;28;20425;-69
2021/12/20 17:32:58;;;;;;;12.13;5.57;;;4.70;95.90;;;;;;10127370;28;20036;-68
2021/12/20 17:37:49;;;;;;;10.23;4.43;;;4.60;95.90;;;;;;10123245;28;20093;-68
2021/12/20 17:42:41;;;;;;;11.30;4.82;;;4.50;96.00;;;;;;10121399;28;20123;-75
2021/12/20 17:47:32;;;;;;;8.98;3.65;;;4.50;96.00;;;;;;10120967;28;20060;-75
2021/12/20 17:52:23;;;;;;;7.75;3.78;;;4.40;96.10;;;;;;10127305;28;20500;-74
2021/12/20 17:57:13;;;;;;;15.23;4.60;;;4.30;96.00;;;;;;10125758;28;20135;-72
2021/12/20 18:02:04;;;;;;;9.60;4.35;;;4.30;96.20;;;;;;10125411;28;20123;-73
2021/12/20 18:06:55;;;;;;;14.05;4.70;;;4.20;96.10;;;;;;10127141;28;20052;-76
2021/12/20 18:11:46;;;;;;;9.10;4.72;;;4.20;96.20;;;;;;10115833;28;20017;-76
2021/12/20 18:16:38;;;;;;;9.75;5.80;;;4.10;96.10;;;;;;10123474;28;20128;-69
2021/12/20 18:21:30;;;;;;;14.35;5.93;;;4.20;96.00;;;;;;10117976;28;20028;-72
2021/12/20 18:26:20;;;;;;;13.18;4.88;;;4.10;96.30;;;;;;10124254;28;20106;-71
2021/12/20 18:31:11;;;;;;;19.60;7.45;;;4.10;96.00;;;;;;10121661;28;20036;-70
2021/12/20 18:36:02;;;;;;;22.70;7.78;;;4.00;96.00;;;;;;10125493;28;20089;-77
2021/12/20 18:40:53;;;;;;;11.85;5.90;;;4.00;96.20;;;;;;10119344;28;20203;-74
2021/12/20 18:45:44;;;;;;;12.82;6.68;;;3.90;96.10;;;;;;10125520;28;20610;-75
2021/12/20 18:50:35;;;;;;;19.70;7.35;;;3.90;96.20;;;;;;10125123;28;20036;-72
2021/12/20 18:55:26;;;;;;;33.15;9.60;;;3.90;96.00;;;;;;10118461;28;20165;-69
2021/12/20 19:00:17;;;;;;;17.73;8.30;;;3.90;96.20;;;;;;10118393;28;20094;-69
2021/12/20 19:05:08;;;;;;;26.35;8.77;;;3.80;96.10;;;;;;10112300;28;20266;-71
2021/12/20 19:10:00;;;;;;;19.90;7.65;;;3.80;96.00;;;;;;10123192;28;20027;-71
2021/12/20 19:14:50;;;;;;;15.32;8.10;;;3.80;95.90;;;;;;10111176;28;20086;-71
2021/12/20 19:19:41;;;;;;;11.45;7.05;;;3.80;96.10;;;;;;10108960;28;20150;-69
2021/12/20 19:24:35;;;;;;;14.45;5.80;;;3.80;96.10;;;;;;10120885;28;20048;-67
2021/12/20 19:29:31;;;;;;;14.30;5.63;;;3.70;96.20;;;;;;10116480;28;20473;-73
2021/12/20 19:34:23;;;;;;;13.45;4.80;;;3.70;96.20;;;;;;10120443;28;20155;-72
2021/12/20 19:39:14;;;;;;;11.30;5.35;;;3.70;96.20;;;;;;10124540;28;20545;-71
2021/12/20 19:44:07;;;;;;;11.98;5.80;;;3.60;96.10;;;;;;10123862;28;20037;-67
2021/12/20 19:48:57;;;;;;;13.82;5.57;;;3.60;96.20;;;;;;10125335;28;20025;-65
2021/12/20 19:53:48;;;;;;;10.07;4.65;;;3.60;96.10;;;;;;10106899;28;20025;-67
2021/12/20 19:58:39;;;;;;;10.38;5.57;;;3.50;96.20;;;;;;10130054;28;20119;-71
2021/12/20 20:03:31;;;;;;;13.50;5.38;;;3.50;96.30;;;;;;10129007;28;20115;-69
2021/12/20 20:08:22;;;;;;;18.35;6.53;;;3.40;96.30;;;;;;10130932;28;20028;-70
2021/12/20 20:13:12;;;;;;;12.65;5.43;;;3.40;96.30;;;;;;10129841;28;20028;-73
2021/12/20 20:18:03;;;;;;;15.35;6.63;;;3.40;96.30;;;;;;10117544;28;20522;-68
2021/12/20 20:22:56;;;;;;;14.80;5.95;;;3.30;96.20;;;;;;10138209;28;20105;-69
2021/12/20 20:27:47;;;;;;;11.15;5.65;;;3.30;96.30;;;;;;10129545;28;20486;-67
2021/12/20 20:32:38;;;;;;;17.33;6.82;;;3.20;96.40;;;;;;10126002;28;20033;-71
2021/12/20 20:37:28;;;;;;;15.15;6.70;;;3.20;96.40;;;;;;10111823;28;20091;-68
2021/12/20 20:42:22;;;;;;;14.65;5.53;;;3.20;96.30;;;;;;10124986;28;20119;-69
2021/12/20 20:47:13;;;;;;;11.43;5.90;;;3.20;96.30;;;;;;10122019;28;20390;-70
2021/12/20 20:52:07;;;;;;;10.32;5.70;;;3.10;96.40;;;;;;10122554;28;20033;-67
2021/12/20 20:56:59;;;;;;;10.18;5.32;;;3.10;96.40;;;;;;10124599;28;20160;-67
2021/12/20 21:01:50;;;;;;;12.18;5.05;;;3.10;96.40;;;;;;10123901;28;20024;-70
2021/12/20 21:06:47;;;;;;;10.90;5.60;;;3.10;96.30;;;;;;10128729;28;20490;-65
2021/12/20 21:11:39;;;;;;;12.77;5.97;;;3.00;96.40;;;;;;10124600;28;20040;-61
2021/12/20 21:16:30;;;;;;;8.90;5.72;;;2.90;96.30;;;;;;10120279;28;20041;-60
2021/12/20 21:21:22;;;;;;;13.50;5.03;;;3.00;96.40;;;;;;10113438;28;20048;-60
2021/12/20 21:26:13;;;;;;;12.75;5.30;;;2.90;96.40;;;;;;10119028;28;20132;-63
2021/12/20 21:31:04;;;;;;;14.32;5.55;;;2.90;96.50;;;;;;10116462;28;20060;-61
2021/12/20 21:35:55;;;;;;;11.60;5.28;;;2.90;96.30;;;;;;10113444;28;20079;-66
2021/12/20 21:40:47;;;;;;;14.85;6.30;;;2.90;96.40;;;;;;10126299;28;20029;-66
2021/12/20 21:45:38;;;;;;;8.98;4.95;;;2.80;96.30;;;;;;10117744;28;20036;-65
2021/12/20 21:50:28;;;;;;;12.90;5.80;;;2.90;96.40;;;;;;10108602;28;20460;-63
2021/12/20 21:55:19;;;;;;;12.30;5.75;;;2.90;96.30;;;;;;10117044;28;20036;-68
2021/12/20 22:00:11;;;;;;;9.95;4.95;;;2.80;96.10;;;;;;10118930;28;20033;-61
2021/12/20 22:05:01;;;;;;;12.73;5.28;;;2.80;96.20;;;;;;10118311;28;20020;-64
2021/12/20 22:09:52;;;;;;;14.05;5.47;;;2.80;96.20;;;;;;10123578;28;20036;-61
2021/12/20 22:14:43;;;;;;;13.00;4.78;;;2.70;96.20;;;;;;10126489;28;20032;-63
2021/12/20 22:19:33;;;;;;;9.75;3.63;;;2.70;96.10;;;;;;10114636;28;20036;-63
2021/12/20 22:24:24;;;;;;;16.70;5.65;;;2.70;96.10;;;;;;10110562;28;20532;-64
2021/12/20 22:29:15;;;;;;;10.02;4.15;;;2.70;96.10;;;;;;10118691;28;20066;-61
2021/12/20 22:34:06;;;;;;;17.05;6.50;;;2.70;96.10;;;;;;10121508;28;20078;-61
2021/12/20 22:38:57;;;;;;;8.68;4.70;;;2.70;96.10;;;;;;10117180;28;20514;-60
2021/12/20 22:43:47;;;;;;;6.55;3.20;;;2.60;96.20;;;;;;10107928;28;20021;-66
2021/12/20 22:48:38;;;;;;;7.68;3.75;;;2.50;96.20;;;;;;10119786;28;20096;-62
2021/12/20 22:53:29;;;;;;;9.15;3.70;;;2.50;96.30;;;;;;10120267;28;20067;-60
2021/12/20 22:58:20;;;;;;;8.88;3.95;;;2.40;96.20;;;;;;10114306;28;20449;-61
2021/12/20 23:03:11;;;;;;;5.80;3.17;;;2.40;96.20;;;;;;10117872;28;20432;-61
2021/12/20 23:08:07;;;;;;;6.57;3.72;;;2.30;96.30;;;;;;10119780;28;20033;-60
2021/12/20 23:13:02;;;;;;;;;;;2.30;96.40;;;;;;10108315;28;20549;-61
2021/12/20 23:17:54;;;;;;;5.65;3.08;;;2.30;96.40;;;;;;10140314;28;20373;-65
2021/12/20 23:22:51;;;;;;;7.68;3.50;;;2.20;96.40;;;;;;10117989;28;20040;-61
2021/12/20 23:27:41;;;;;;;7.07;3.40;;;2.20;96.40;;;;;;10122120;28;20550;-63
2021/12/20 23:32:33;;;;;;;6.25;2.67;;;2.10;96.30;;;;;;10116560;28;20124;-60
2021/12/20 23:37:25;;;;;;;10.45;3.22;;;2.10;96.30;;;;;;10113045;28;20039;-61
2021/12/20 23:42:17;;;;;;;9.52;3.15;;;2.00;96.30;;;;;;10117168;28;20032;-61
2021/12/20 23:47:08;;;;;;;5.13;2.80;;;2.00;96.30;;;;;;10134830;28;20068;-63
2021/12/20 23:51:59;;;;;;;5.88;2.53;;;1.90;96.40;;;;;;10112112;28;20029;-62
2021/12/20 23:56:49;;;;;;;8.85;3.13;;;1.90;96.40;;;;;;10122405;28;20065;-63
